createdAt,value
2019-05-13T00:01:40.834Z,4.80
2019-05-13T00:04:10.912Z,4.50
2019-05-13T00:06:53.126Z,4.60
2019-05-13T00:09:14.111Z,5.13
2019-05-13T00:11:44.453Z,4.60
2019-05-13T00:14:14.614Z,4.67
2019-05-13T00:16:44.995Z,4.90
2019-05-13T00:19:15.238Z,5.57
2019-05-13T00:21:45.277Z,4.50
2019-05-13T00:24:15.441Z,4.90
2019-05-13T00:26:45.560Z,4.17
2019-05-13T00:29:15.679Z,4.03
2019-05-13T00:31:45.812Z,4.60
2019-05-13T00:34:16.186Z,4.13
2019-05-13T00:36:46.398Z,5.00
2019-05-13T00:39:16.542Z,5.20
2019-05-13T00:41:46.669Z,5.03
2019-05-13T00:44:16.725Z,5.33
2019-05-13T00:46:46.842Z,4.10
2019-05-13T00:49:16.993Z,4.20
2019-05-13T00:51:47.105Z,4.50
2019-05-13T00:54:17.239Z,4.60
2019-05-13T00:56:47.270Z,5.23
2019-05-13T00:59:17.335Z,4.50
2019-05-13T01:01:47.369Z,4.20
2019-05-13T01:04:20.306Z,4.20
2019-05-13T01:06:50.458Z,4.17
2019-05-13T01:09:20.578Z,4.37
2019-05-13T01:11:50.630Z,4.30
2019-05-13T01:14:20.747Z,4.67
2019-05-13T01:16:50.868Z,4.40
2019-05-13T01:19:23.532Z,4.23
2019-05-13T01:21:54.038Z,4.73
2019-05-13T01:24:24.557Z,3.83
2019-05-13T01:26:54.734Z,4.10
2019-05-13T01:29:24.872Z,3.70
2019-05-13T01:31:54.971Z,4.00
2019-05-13T01:34:25.109Z,4.13
2019-05-13T01:36:55.293Z,3.40
2019-05-13T01:39:25.414Z,3.70
2019-05-13T01:41:55.473Z,4.00
2019-05-13T01:44:25.630Z,3.70
2019-05-13T01:46:55.759Z,3.80
2019-05-13T01:49:25.870Z,3.83
2019-05-13T01:51:55.909Z,3.67
2019-05-13T01:54:26.071Z,3.40
2019-05-13T01:56:56.122Z,3.80
2019-05-13T01:59:26.175Z,3.77
2019-05-13T02:01:56.291Z,4.00
2019-05-13T02:04:26.442Z,4.00
2019-05-13T02:06:56.610Z,3.77
2019-05-13T02:09:26.722Z,3.53
2019-05-13T02:11:56.773Z,3.53
2019-05-13T02:14:26.889Z,3.50
2019-05-13T02:16:56.974Z,3.80
2019-05-13T02:19:27.046Z,3.27
2019-05-13T02:21:57.238Z,3.30
2019-05-13T02:24:27.301Z,3.47
2019-05-13T02:26:57.437Z,3.40
2019-05-13T02:29:27.546Z,3.00
2019-05-13T02:31:57.656Z,3.47
2019-05-13T02:34:27.856Z,3.80
2019-05-13T02:36:57.950Z,3.50
2019-05-13T02:39:28.073Z,3.80
2019-05-13T02:41:58.190Z,3.27
2019-05-13T02:44:28.250Z,4.37
2019-05-13T02:47:02.964Z,3.93
2019-05-13T02:49:32.513Z,4.33
2019-05-13T02:52:03.327Z,4.60
2019-05-13T02:54:34.439Z,4.47
2019-05-13T02:57:04.884Z,3.80
2019-05-13T02:59:35.117Z,4.30
2019-05-13T03:02:05.222Z,3.50
2019-05-13T03:04:35.372Z,3.57
2019-05-13T03:07:05.442Z,3.37
2019-05-13T03:09:35.483Z,3.80
2019-05-13T03:12:05.531Z,3.77
2019-05-13T03:14:35.686Z,3.77
2019-05-13T03:17:14.543Z,3.73
2019-05-13T03:19:44.577Z,3.90
2019-05-13T03:22:14.727Z,4.20
2019-05-13T03:24:44.843Z,3.80
2019-05-13T03:27:19.632Z,4.20
2019-05-13T03:29:46.783Z,4.13
2019-05-13T03:32:17.498Z,3.60
2019-05-13T03:34:47.634Z,3.60
2019-05-13T03:37:18.190Z,3.77
2019-05-13T03:39:52.149Z,4.50
2019-05-13T03:42:24.611Z,3.60
2019-05-13T03:44:56.179Z,4.10
2019-05-13T03:47:26.850Z,4.13
2019-05-13T03:50:03.296Z,4.27
2019-05-13T03:52:33.670Z,4.00
2019-05-13T03:55:03.606Z,3.97
2019-05-13T03:57:35.198Z,3.80
2019-05-13T04:00:06.040Z,4.10
2019-05-13T04:02:36.319Z,4.30
2019-05-13T04:05:06.528Z,3.90
2019-05-13T04:07:36.714Z,4.60
2019-05-13T04:10:07.235Z,4.63
2019-05-13T04:12:37.381Z,4.00
2019-05-13T04:15:07.798Z,4.83
2019-05-13T04:17:38.022Z,4.20
2019-05-13T04:20:12.367Z,4.30
2019-05-13T04:22:42.506Z,4.57
2019-05-13T04:25:12.922Z,3.90
2019-05-13T04:27:43.291Z,4.00
2019-05-13T04:30:13.780Z,3.97
2019-05-13T04:32:44.373Z,4.10
2019-05-13T04:35:14.549Z,4.47
2019-05-13T04:37:44.752Z,4.30
2019-05-13T04:40:14.946Z,4.37
2019-05-13T04:42:45.059Z,4.33
2019-05-13T04:45:15.162Z,4.27
2019-05-13T04:47:45.201Z,4.17
2019-05-13T04:50:15.453Z,4.67
2019-05-13T04:53:04.562Z,3.97
2019-05-13T04:55:34.656Z,4.27
2019-05-13T04:58:04.950Z,4.20
2019-05-13T05:01:23.479Z,3.93
2019-05-13T05:04:03.683Z,3.77
2019-05-13T05:07:29.197Z,4.20
2019-05-13T05:10:21.190Z,4.60
2019-05-13T05:13:07.333Z,3.87
2019-05-13T05:16:26.447Z,3.73
2019-05-13T05:19:31.854Z,4.33
2019-05-13T05:22:31.448Z,4.27
2019-05-13T05:25:17.538Z,4.17
2019-05-13T05:28:16.254Z,4.90
2019-05-13T05:31:26.490Z,5.17
2019-05-13T05:34:41.923Z,6.00
2019-05-13T05:37:54.429Z,4.00
2019-05-13T05:40:31.316Z,4.57
2019-05-13T05:43:02.375Z,5.00
2019-05-13T05:45:36.670Z,4.87
2019-05-13T05:48:07.754Z,4.13
2019-05-13T05:50:38.721Z,4.50
2019-05-13T05:53:11.136Z,5.00
2019-05-13T05:55:42.565Z,4.70
2019-05-13T05:58:13.951Z,4.10
2019-05-13T06:00:46.033Z,4.40
2019-05-13T06:03:16.491Z,4.10
2019-05-13T06:05:47.999Z,3.97
2019-05-13T06:08:18.226Z,3.83
2019-05-13T06:10:51.307Z,4.57
2019-05-13T06:13:21.456Z,4.10
2019-05-13T06:15:51.824Z,4.33
2019-05-13T06:18:22.409Z,3.87
2019-05-13T06:20:52.609Z,4.33
2019-05-13T06:23:23.268Z,4.10
2019-05-13T06:25:53.469Z,3.57
2019-05-13T06:28:23.602Z,4.10
2019-05-13T06:30:53.748Z,4.07
2019-05-13T06:33:23.876Z,4.23
2019-05-13T06:35:54.193Z,3.60
2019-05-13T06:38:24.371Z,3.47
2019-05-13T06:41:03.297Z,3.90
2019-05-13T06:43:26.258Z,4.33
2019-05-13T06:45:56.415Z,4.43
2019-05-13T06:48:26.522Z,4.83
2019-05-13T06:50:56.652Z,4.43
2019-05-13T06:53:26.777Z,4.13
2019-05-13T06:55:56.970Z,3.90
2019-05-13T06:58:27.029Z,3.67
2019-05-13T07:00:58.544Z,4.20
2019-05-13T07:03:28.964Z,4.27
2019-05-13T07:06:01.639Z,4.50
2019-05-13T07:08:31.407Z,5.43
2019-05-13T07:11:17.187Z,4.80
2019-05-13T07:13:33.651Z,4.60
2019-05-13T07:16:03.829Z,4.50
2019-05-13T07:18:33.911Z,5.60
2019-05-13T07:21:04.051Z,4.90
2019-05-13T07:23:34.202Z,5.50
2019-05-13T07:26:04.602Z,5.33
2019-05-13T07:28:34.803Z,4.73
2019-05-13T07:31:05.094Z,5.13
2019-05-13T07:33:35.550Z,5.87
2019-05-13T07:36:08.581Z,5.70
2019-05-13T07:38:41.441Z,5.03
2019-05-13T07:41:12.026Z,5.30
2019-05-13T07:43:42.739Z,4.80
2019-05-13T07:46:13.974Z,5.50
2019-05-13T07:48:44.079Z,4.13
2019-05-13T07:51:15.414Z,4.40
2019-05-13T07:53:45.571Z,4.40
2019-05-13T07:56:15.732Z,4.90
2019-05-13T07:58:45.968Z,5.00
2019-05-13T08:01:16.073Z,4.37
2019-05-13T08:03:46.230Z,4.27
2019-05-13T08:06:16.342Z,4.50
2019-05-13T08:08:46.537Z,4.33
2019-05-13T08:11:16.656Z,4.10
2019-05-13T08:13:46.710Z,4.37
2019-05-13T08:16:16.818Z,4.27
2019-05-13T08:18:46.857Z,5.10
2019-05-13T08:21:16.970Z,5.40
2019-05-13T08:23:47.116Z,5.17
2019-05-13T08:26:17.193Z,5.47
2019-05-13T08:29:00.286Z,5.00
2019-05-13T08:31:21.416Z,6.43
2019-05-13T08:33:51.896Z,6.13
2019-05-13T08:36:23.463Z,6.07
2019-05-13T08:38:53.779Z,7.20
2019-05-13T08:41:23.817Z,6.70
2019-05-13T08:43:53.994Z,6.83
2019-05-13T08:46:27.052Z,6.97
2019-05-13T08:48:57.270Z,7.40
2019-05-13T08:51:27.393Z,7.20
2019-05-13T08:53:59.134Z,7.00
2019-05-13T08:56:29.327Z,7.70
2019-05-13T08:59:01.152Z,7.50
2019-05-13T09:01:31.951Z,7.23
2019-05-13T09:04:02.780Z,7.60
2019-05-13T09:06:34.039Z,6.90
2019-05-13T09:09:06.396Z,8.13
2019-05-13T09:11:36.548Z,7.33
2019-05-13T09:14:06.613Z,7.57
2019-05-13T09:16:36.762Z,7.43
2019-05-13T09:19:07.070Z,6.40
2019-05-13T09:21:37.191Z,6.67
2019-05-13T09:24:20.838Z,6.73
2019-05-13T09:26:41.933Z,6.60
2019-05-13T09:29:11.920Z,6.67
2019-05-13T09:31:42.195Z,6.47
2019-05-13T09:34:12.432Z,7.03
2019-05-13T09:36:42.564Z,6.80
2019-05-13T09:39:12.863Z,6.60
2019-05-13T09:41:44.635Z,6.57
2019-05-13T09:44:15.163Z,6.30
2019-05-13T09:46:45.285Z,7.00
2019-05-13T09:49:19.713Z,6.20
2019-05-13T09:51:47.326Z,6.23
2019-05-13T09:54:17.446Z,6.00
2019-05-13T09:56:47.693Z,5.77
2019-05-13T09:59:17.749Z,5.93
2019-05-13T10:01:47.920Z,5.77
2019-05-13T10:04:18.028Z,6.43
2019-05-13T10:06:48.254Z,5.93
2019-05-13T10:09:18.443Z,6.33
2019-05-13T10:11:48.579Z,6.73
2019-05-13T10:14:18.823Z,7.10
2019-05-13T10:16:51.331Z,6.60
2019-05-13T10:19:21.460Z,6.97
2019-05-13T10:21:52.665Z,6.70
2019-05-13T10:24:23.219Z,7.57
2019-05-13T10:26:53.822Z,8.20
2019-05-13T10:29:24.456Z,7.10
2019-05-13T10:31:54.762Z,7.40
2019-05-13T10:34:24.907Z,6.67
2019-05-13T10:36:55.427Z,6.40
2019-05-13T10:39:25.601Z,7.53
2019-05-13T10:41:55.650Z,7.63
2019-05-13T10:44:25.925Z,6.67
2019-05-13T10:46:56.124Z,7.40
2019-05-13T10:49:26.260Z,7.50
2019-05-13T10:51:56.382Z,6.53
2019-05-13T10:54:26.438Z,7.20
2019-05-13T10:56:59.756Z,9.03
2019-05-13T10:59:28.373Z,7.00
2019-05-13T11:01:58.528Z,7.07
2019-05-13T11:04:28.923Z,6.83
2019-05-13T11:07:02.404Z,6.47
2019-05-13T11:09:32.677Z,7.13
2019-05-13T11:12:03.733Z,6.53
2019-05-13T11:14:33.930Z,6.53
2019-05-13T11:17:04.222Z,5.60
2019-05-13T11:19:37.127Z,5.63
2019-05-13T11:22:06.274Z,4.90
2019-05-13T11:24:36.321Z,4.67
2019-05-13T11:27:06.426Z,5.10
2019-05-13T11:29:36.566Z,4.73
2019-05-13T11:32:07.022Z,4.80
2019-05-13T11:34:37.178Z,5.00
2019-05-13T11:37:07.383Z,4.60
2019-05-13T11:39:37.574Z,4.40
2019-05-13T11:42:07.630Z,4.30
2019-05-13T11:44:37.775Z,4.13
2019-05-13T11:47:08.258Z,3.83
2019-05-13T11:49:38.469Z,3.83
2019-05-13T11:52:08.606Z,4.17
2019-05-13T11:54:38.728Z,3.80
2019-05-13T11:57:11.689Z,3.63
2019-05-13T11:59:42.936Z,3.90
2019-05-13T12:02:13.603Z,3.80
2019-05-13T12:04:44.329Z,3.73
2019-05-13T12:07:14.393Z,3.67
2019-05-13T12:09:45.308Z,3.53
2019-05-13T12:12:15.367Z,3.57
2019-05-13T12:15:17.780Z,3.50
2019-05-13T12:17:17.622Z,3.40
2019-05-13T12:19:48.794Z,4.00
2019-05-13T12:22:22.720Z,3.97
2019-05-13T12:24:51.648Z,3.47
2019-05-13T12:27:22.574Z,3.63
2019-05-13T12:29:53.170Z,3.70
2019-05-13T12:32:23.373Z,3.23
2019-05-13T12:34:53.626Z,3.43
2019-05-13T12:37:23.757Z,3.60
2019-05-13T12:39:54.097Z,3.33
2019-05-13T12:42:24.281Z,3.57
2019-05-13T12:45:09.357Z,3.27
2019-05-13T12:47:26.171Z,3.30
2019-05-13T12:49:56.385Z,3.33
2019-05-13T12:52:26.602Z,3.03
2019-05-13T12:54:57.040Z,2.87
2019-05-13T12:57:27.246Z,3.23
2019-05-13T12:59:57.484Z,2.63
2019-05-13T13:02:27.621Z,2.60
2019-05-13T13:05:09.362Z,3.10
2019-05-13T13:07:33.409Z,3.13
2019-05-13T13:10:01.455Z,3.00
2019-05-13T13:12:36.127Z,3.10
2019-05-13T13:15:31.758Z,3.70
2019-05-13T13:17:35.331Z,3.40
2019-05-13T13:20:09.632Z,3.10
2019-05-13T13:22:39.030Z,3.20
2019-05-13T13:25:09.234Z,3.17
2019-05-13T13:28:06.757Z,2.90
2019-05-13T13:30:11.806Z,2.80
2019-05-13T13:32:45.351Z,2.80
2019-05-13T13:35:14.962Z,2.60
2019-05-13T13:37:46.226Z,2.33
2019-05-13T13:40:24.531Z,2.50
2019-05-13T13:42:48.432Z,2.50
2019-05-13T13:45:18.751Z,2.70
2019-05-13T13:47:59.230Z,2.80
2019-05-13T13:50:24.612Z,2.53
2019-05-13T13:52:53.076Z,2.50
2019-05-13T13:55:25.879Z,2.43
2019-05-13T13:57:56.730Z,2.40
2019-05-13T14:00:38.441Z,2.30
2019-05-13T14:02:59.111Z,3.10
2019-05-13T14:05:29.373Z,2.70
2019-05-13T14:08:01.712Z,2.90
2019-05-13T14:10:31.920Z,2.60
2019-05-13T14:13:04.867Z,3.80
2019-05-13T14:15:35.211Z,3.33
2019-05-13T14:18:05.437Z,3.40
2019-05-13T14:20:35.531Z,3.43
2019-05-13T14:23:05.737Z,3.30
2019-05-13T14:25:35.962Z,3.63
2019-05-13T14:28:06.231Z,3.97
2019-05-13T14:30:36.724Z,3.77
2019-05-13T14:33:07.143Z,4.07
2019-05-13T14:35:37.606Z,4.83
2019-05-13T14:38:08.037Z,4.90
2019-05-13T14:40:38.310Z,4.90
2019-05-13T14:43:08.811Z,4.40
2019-05-13T14:45:39.039Z,4.63
2019-05-13T14:48:09.205Z,3.87
2019-05-13T14:50:41.399Z,3.83
2019-05-13T14:53:11.158Z,3.77
2019-05-13T14:55:41.966Z,3.67
2019-05-13T14:58:12.216Z,6.17
2019-05-13T15:00:42.383Z,5.43
2019-05-13T15:03:13.203Z,4.67
2019-05-13T15:05:43.553Z,4.57
2019-05-13T15:08:13.743Z,4.47
2019-05-13T15:10:44.054Z,4.10
2019-05-13T15:13:14.276Z,4.40
2019-05-13T15:15:44.356Z,4.50
2019-05-13T15:18:14.452Z,5.07
2019-05-13T15:20:44.890Z,5.20
2019-05-13T15:23:15.585Z,5.10
2019-05-13T15:25:45.773Z,5.43
2019-05-13T15:28:15.980Z,6.23
2019-05-13T15:30:46.244Z,5.10
2019-05-13T15:33:16.432Z,5.33
2019-05-13T15:35:46.609Z,5.10
2019-05-13T15:38:16.723Z,5.67
2019-05-13T15:40:46.951Z,6.10
2019-05-13T15:43:17.189Z,6.97
2019-05-13T15:45:47.346Z,8.50
2019-05-13T15:48:18.644Z,7.00
2019-05-13T15:50:51.148Z,6.67
2019-05-13T15:53:39.256Z,5.80
2019-05-13T15:55:52.613Z,6.00
2019-05-13T15:58:38.061Z,6.70
2019-05-13T16:00:54.768Z,8.60
2019-05-13T16:03:25.315Z,7.57
2019-05-13T16:05:55.528Z,6.80
2019-05-13T16:08:25.712Z,7.53
2019-05-13T16:10:55.878Z,7.87
2019-05-13T16:13:25.994Z,9.10
2019-05-13T16:15:56.297Z,8.80
2019-05-13T16:18:26.503Z,9.73
2019-05-13T16:20:56.735Z,9.80
2019-05-13T16:23:26.874Z,9.43
2019-05-13T16:25:57.016Z,7.97
2019-05-13T16:28:27.186Z,7.23
2019-05-13T16:30:57.536Z,8.20
2019-05-13T16:33:31.208Z,7.50
2019-05-13T16:36:02.710Z,7.53
2019-05-13T16:38:32.994Z,7.83
2019-05-13T16:41:03.429Z,13.03
2019-05-13T16:43:34.202Z,14.93
2019-05-13T16:46:07.129Z,14.20
2019-05-13T16:48:36.440Z,13.83
2019-05-13T16:51:06.514Z,12.50
2019-05-13T16:53:36.714Z,9.23
2019-05-13T16:56:06.890Z,9.37
2019-05-13T16:58:37.082Z,10.57
2019-05-13T17:01:07.203Z,9.57
2019-05-13T17:03:37.393Z,11.57
2019-05-13T17:06:07.693Z,11.73
2019-05-13T17:08:37.930Z,10.73
2019-05-13T17:11:08.127Z,10.53
2019-05-13T17:13:38.305Z,11.27
2019-05-13T17:16:08.568Z,10.83
2019-05-13T17:18:38.852Z,10.13
2019-05-13T17:21:09.498Z,13.57
2019-05-13T17:23:41.793Z,17.67
2019-05-13T17:26:11.746Z,34.73
2019-05-13T17:28:42.145Z,32.27
2019-05-13T17:31:12.314Z,27.83
2019-05-13T17:33:42.553Z,20.67
2019-05-13T17:36:12.814Z,19.17
2019-05-13T17:38:43.222Z,15.80
2019-05-13T17:41:13.374Z,15.33
2019-05-13T17:43:43.508Z,15.63
2019-05-13T17:46:13.717Z,14.37
2019-05-13T17:48:43.913Z,16.27
2019-05-13T17:51:16.486Z,17.27
2019-05-13T17:53:46.035Z,16.20
2019-05-13T17:56:16.169Z,14.73
2019-05-13T17:58:46.335Z,12.23
2019-05-13T18:01:16.569Z,11.50
2019-05-13T18:03:47.032Z,11.20
2019-05-13T18:06:17.476Z,10.70
2019-05-13T18:08:48.756Z,12.70
2019-05-13T18:11:19.173Z,15.97
2019-05-13T18:13:51.696Z,22.20
2019-05-13T18:16:21.749Z,23.97
2019-05-13T18:18:52.266Z,32.27
2019-05-13T18:21:22.507Z,20.93
2019-05-13T18:23:52.913Z,23.70
2019-05-13T18:26:23.241Z,22.23
2019-05-13T18:28:53.482Z,22.53
2019-05-13T18:31:24.920Z,20.87
2019-05-13T18:33:55.329Z,22.80
2019-05-13T18:36:25.582Z,24.03
2019-05-13T18:38:56.130Z,25.07
2019-05-13T18:41:26.377Z,26.73
2019-05-13T18:43:56.610Z,24.47
2019-05-13T18:46:26.906Z,26.03
2019-05-13T18:48:59.140Z,24.53
2019-05-13T18:51:28.881Z,22.43
2019-05-13T18:54:01.129Z,22.80
2019-05-13T18:56:32.288Z,22.90
2019-05-13T18:59:02.701Z,27.87
2019-05-13T19:01:33.334Z,22.77
2019-05-13T19:04:03.536Z,24.53
2019-05-13T19:06:33.809Z,23.53
2019-05-13T19:09:05.759Z,18.37
2019-05-13T19:11:36.014Z,17.50
2019-05-13T19:14:06.185Z,19.47
2019-05-13T19:16:36.433Z,17.40
2019-05-13T19:19:13.415Z,17.90
2019-05-13T19:21:38.633Z,17.40
2019-05-13T19:24:10.383Z,20.50
2019-05-13T19:26:41.674Z,26.77
2019-05-13T19:29:11.906Z,27.97
2019-05-13T19:31:42.265Z,24.90
2019-05-13T19:34:12.821Z,24.30
2019-05-13T19:36:43.216Z,24.03
2019-05-13T19:39:13.425Z,25.77
2019-05-13T19:41:43.654Z,26.00
2019-05-13T19:44:14.173Z,25.57
2019-05-13T19:46:44.322Z,27.90
2019-05-13T19:49:28.726Z,27.47
2019-05-13T19:51:46.304Z,23.70
2019-05-13T19:54:16.370Z,17.90
2019-05-13T19:56:46.494Z,17.90
2019-05-13T19:59:16.590Z,20.67
2019-05-13T20:01:46.851Z,37.27
2019-05-13T20:04:17.111Z,36.17
2019-05-13T20:06:47.356Z,60.40
2019-05-13T20:09:17.617Z,28.33
2019-05-13T20:11:47.804Z,39.83
2019-05-13T20:14:18.078Z,30.67
2019-05-13T20:16:52.039Z,41.53
2019-05-13T20:19:22.294Z,44.27
2019-05-13T20:21:52.909Z,38.53
2019-05-13T20:24:23.557Z,44.57
2019-05-13T20:26:53.733Z,30.47
2019-05-13T20:29:25.002Z,24.83
2019-05-13T20:31:55.453Z,24.20
2019-05-13T20:34:25.530Z,19.53
2019-05-13T20:36:55.690Z,24.03
2019-05-13T20:39:25.871Z,19.37
2019-05-13T20:41:56.199Z,26.03
2019-05-13T20:44:26.402Z,21.30
2019-05-13T20:46:56.541Z,17.10
2019-05-13T20:49:26.755Z,14.83
2019-05-13T20:51:56.991Z,12.73
2019-05-13T20:54:27.211Z,11.90
2019-05-13T20:56:57.371Z,12.20
2019-05-13T20:59:27.549Z,11.77
2019-05-13T21:01:57.757Z,15.40
2019-05-13T21:04:27.861Z,16.10
2019-05-13T21:06:58.098Z,12.23
2019-05-13T21:09:28.761Z,10.43
2019-05-13T21:12:01.490Z,8.90
2019-05-13T21:14:32.009Z,8.83
2019-05-13T21:17:02.481Z,11.83
2019-05-13T21:19:39.360Z,14.20
2019-05-13T21:22:04.515Z,12.90
2019-05-13T21:24:34.730Z,14.73
2019-05-13T21:27:04.986Z,17.10
2019-05-13T21:29:35.050Z,18.10
2019-05-13T21:32:05.225Z,13.30
2019-05-13T21:34:35.441Z,16.47
2019-05-13T21:37:05.547Z,15.90
2019-05-13T21:39:35.703Z,15.70
2019-05-13T21:42:05.942Z,11.50
2019-05-13T21:44:36.192Z,15.83
2019-05-13T21:47:06.370Z,17.07
2019-05-13T21:49:36.541Z,16.67
2019-05-13T21:52:06.772Z,24.17
2019-05-13T21:54:36.870Z,24.23
2019-05-13T21:57:06.933Z,21.40
2019-05-13T21:59:37.062Z,15.17
2019-05-13T22:02:07.202Z,30.60
2019-05-13T22:04:37.278Z,33.87
2019-05-13T22:07:07.402Z,25.37
2019-05-13T22:09:37.566Z,24.20
2019-05-13T22:12:07.762Z,24.57
2019-05-13T22:14:37.967Z,17.53
2019-05-13T22:17:08.134Z,11.40
2019-05-13T22:19:38.385Z,18.63
2019-05-13T22:22:08.570Z,18.57
2019-05-13T22:24:41.633Z,14.97
2019-05-13T22:27:13.273Z,16.73
2019-05-13T22:29:43.561Z,16.30
2019-05-13T22:32:13.758Z,12.73
2019-05-13T22:34:43.805Z,11.83
2019-05-13T22:37:13.889Z,11.60
2019-05-13T22:39:44.099Z,11.53
2019-05-13T22:42:14.221Z,10.77
2019-05-13T22:44:44.382Z,10.43
2019-05-13T22:47:15.027Z,10.03
2019-05-13T22:49:45.284Z,12.20
2019-05-13T22:52:15.459Z,10.47
2019-05-13T22:54:45.657Z,10.73
2019-05-13T22:57:15.850Z,10.90
2019-05-13T22:59:45.999Z,10.77
2019-05-13T23:02:16.162Z,11.33
2019-05-13T23:04:46.305Z,10.50
2019-05-13T23:07:16.413Z,10.47
2019-05-13T23:09:46.482Z,11.10
2019-05-13T23:12:16.586Z,10.60
2019-05-13T23:14:46.729Z,12.40
2019-05-13T23:17:16.902Z,11.60
2019-05-13T23:19:47.081Z,11.63
2019-05-13T23:22:17.166Z,12.27
2019-05-13T23:24:47.289Z,12.60
2019-05-13T23:27:17.526Z,12.10
2019-05-13T23:29:47.698Z,12.60
2019-05-13T23:32:17.907Z,12.60
2019-05-13T23:34:48.105Z,13.10
2019-05-13T23:37:18.249Z,11.90
2019-05-13T23:39:48.426Z,12.77
2019-05-13T23:42:18.475Z,13.27
2019-05-13T23:44:48.597Z,13.27
2019-05-13T23:47:18.782Z,13.27
2019-05-13T23:49:51.195Z,13.20
2019-05-13T23:52:22.087Z,12.23
2019-05-13T23:54:52.409Z,11.23
2019-05-13T23:57:22.594Z,13.53
2019-05-13T23:59:52.654Z,12.93
